Time;durP1;ratioP1;P1;durP2;ratioP2;P2;SDS_P1;SDS_P2;PMS_P1;PMS_P2;Temp;Humidity;BMP_temperature;BMP_pressure;BME280_temperature;BME280_humidity;BME280_pressure;Samples;Min_cycle;Max_cycle;Signal;HPM_P1;HPM_P2
2022/03/27 00:03:17;;;;;;;;;;;11.10;51.50;;;;;;5028191;28;86712;-57
2022/03/27 00:08:45;;;;;;;;;;;11.20;51.50;;;;;;5025911;28;86831;-53
2022/03/27 00:14:14;;;;;;;;;;;11.10;51.60;;;;;;5025208;28;86952;-54
2022/03/27 00:19:42;;;;;;;;;;;11.00;51.40;;;;;;5026198;28;86264;-53
2022/03/27 00:25:10;;;;;;;;;;;11.00;51.50;;;;;;5028573;28;86824;-53
2022/03/27 00:30:39;;;;;;;;;;;10.90;51.70;;;;;;5025466;28;86688;-55
2022/03/27 00:36:10;;;;;;;;;;;10.90;51.80;;;;;;5025117;28;87153;-57
2022/03/27 00:41:38;;;;;;;;;;;10.80;51.80;;;;;;5025401;28;86715;-53
2022/03/27 00:47:07;;;;;;;;;;;10.80;51.80;;;;;;5025691;28;86047;-54
2022/03/27 00:52:35;;;;;;;;;;;10.70;51.90;;;;;;5023949;28;86722;-57
2022/03/27 00:58:04;;;;;;;;;;;10.70;51.90;;;;;;5024643;28;87155;-57
2022/03/27 01:03:33;;;;;;;;;;;10.70;51.90;;;;;;5024089;28;86759;-57
2022/03/27 01:14:51;;;;;;;;;;;10.50;51.90;;;;;;5026077;28;86767;-55
2022/03/27 01:20:29;;;;;;;;;;;10.50;52.00;;;;;;5024361;28;86977;-55
2022/03/27 01:25:58;;;;;;;;;;;10.40;52.00;;;;;;5024620;28;87351;-53
2022/03/27 01:31:26;;;;;;;;;;;10.40;52.00;;;;;;5024568;28;86763;-57
2022/03/27 01:36:55;;;;;;;;;;;10.40;52.20;;;;;;5024038;28;87024;-55
2022/03/27 01:42:23;;;;;;;;;;;10.30;52.00;;;;;;5024554;28;86324;-54
2022/03/27 01:47:52;;;;;;;;;;;10.30;52.10;;;;;;5024276;28;86767;-54
2022/03/27 01:53:21;;;;;;;;;;;10.20;52.10;;;;;;5024202;28;86791;-56
2022/03/27 01:58:50;;;;;;;;;;;10.20;52.20;;;;;;5023795;28;87037;-57
2022/03/27 02:04:18;;;;;;;;;;;10.10;52.30;;;;;;5025349;28;86875;-54
2022/03/27 02:09:47;;;;;;;;;;;10.10;52.20;;;;;;5024552;28;86252;-56
2022/03/27 02:15:15;;;;;;;;;;;10.10;52.30;;;;;;5023031;28;86918;-55
2022/03/27 02:20:44;;;;;;;;;;;10.00;52.10;;;;;;5023498;28;86745;-56
2022/03/27 02:26:12;;;;;;;;;;;10.00;52.30;;;;;;5027859;28;86817;-56
2022/03/27 02:31:41;;;;;;;;;;;9.90;52.10;;;;;;5030448;28;86725;-57
2022/03/27 02:37:10;;;;;;;;;;;9.90;52.30;;;;;;5030816;28;85984;-55
2022/03/27 02:42:38;;;;;;;;;;;9.90;52.30;;;;;;5029942;28;86723;-57
2022/03/27 02:48:07;;;;;;;;;;;9.80;52.20;;;;;;5030217;28;87185;-57
2022/03/27 02:53:35;;;;;;;;;;;9.80;52.40;;;;;;5030160;28;86851;-53
2022/03/27 02:59:04;;;;;;;;;;;9.70;52.30;;;;;;5030069;28;86758;-54
2022/03/27 03:04:34;;;;;;;;;;;9.70;52.20;;;;;;5030199;28;86289;-54
2022/03/27 03:10:03;;;;;;;;;;;9.60;52.40;;;;;;5030031;28;86824;-55
2022/03/27 03:15:32;;;;;;;;;;;9.60;52.40;;;;;;5032725;28;86941;-56
2022/03/27 03:21:01;;;;;;;;;;;9.50;52.30;;;;;;5029764;28;86725;-54
2022/03/27 03:26:30;;;;;;;;;;;9.50;52.40;;;;;;5029302;28;86779;-53
2022/03/27 03:31:58;;;;;;;;;;;9.40;52.30;;;;;;5030122;28;85948;-55
2022/03/27 03:37:27;;;;;;;;;;;9.40;52.40;;;;;;5026888;28;86760;-56
2022/03/27 03:42:56;;;;;;;;;;;9.30;52.60;;;;;;5026238;28;86755;-53
2022/03/27 03:48:25;;;;;;;;;;;9.30;52.40;;;;;;5025799;28;86923;-53
2022/03/27 03:53:53;;;;;;;;;;;9.30;52.50;;;;;;5026058;28;86857;-54
2022/03/27 03:59:21;;;;;;;;;;;9.30;52.50;;;;;;5026464;28;86007;-56
2022/03/27 04:04:50;;;;;;;;;;;9.20;52.50;;;;;;5027207;28;86987;-53
2022/03/27 04:10:19;;;;;;;;;;;9.20;52.50;;;;;;5025478;28;86656;-55
2022/03/27 04:15:48;;;;;;;;;;;9.10;52.50;;;;;;5026050;28;86971;-52
2022/03/27 04:21:16;;;;;;;;;;;9.10;52.50;;;;;;5025695;28;86740;-53
2022/03/27 04:26:44;;;;;;;;;;;9.00;52.50;;;;;;5025779;28;86253;-53
2022/03/27 04:32:13;;;;;;;;;;;9.00;52.40;;;;;;5025061;28;87010;-56
2022/03/27 04:37:42;;;;;;;;;;;9.00;52.40;;;;;;5025425;28;87464;-54
2022/03/27 04:43:12;;;;;;;;;;;8.90;52.40;;;;;;5025315;28;86729;-54
2022/03/27 04:48:40;;;;;;;;;;;8.90;52.40;;;;;;5026484;28;86837;-53
2022/03/27 04:54:09;;;;;;;;;;;8.90;52.50;;;;;;5028049;28;86378;-53
2022/03/27 04:59:37;;;;;;;;;;;8.80;52.50;;;;;;5025054;28;86661;-53
2022/03/27 05:05:07;;;;;;;;;;;8.80;52.50;;;;;;5025061;28;86745;-53
2022/03/27 05:10:36;;;;;;;;;;;8.80;52.40;;;;;;5024512;28;87013;-52
2022/03/27 05:16:05;;;;;;;;;;;8.70;52.50;;;;;;5027551;28;86986;-53
2022/03/27 05:21:34;;;;;;;;;;;8.70;52.50;;;;;;5025187;28;86371;-54
2022/03/27 05:27:02;;;;;;;;;;;8.60;53.10;;;;;;5024655;28;86759;-52
2022/03/27 05:32:31;;;;;;;;;;;8.70;52.40;;;;;;5024100;28;87031;-54
2022/03/27 05:38:00;;;;;;;;;;;8.60;52.50;;;;;;5024480;28;86754;-54
2022/03/27 05:43:29;;;;;;;;;;;8.60;52.50;;;;;;5024469;28;86769;-53
2022/03/27 05:48:57;;;;;;;;;;;8.60;52.60;;;;;;5024781;28;85896;-53
2022/03/27 05:54:26;;;;;;;;;;;8.50;52.50;;;;;;5022503;28;87169;-52
2022/03/27 05:59:55;;;;;;;;;;;8.50;52.40;;;;;;5023539;28;87036;-54
2022/03/27 06:05:23;;;;;;;;;;;8.50;52.50;;;;;;5027012;28;86758;-53
2022/03/27 06:10:52;;;;;;;;;;;8.50;52.60;;;;;;5023984;28;86665;-55
2022/03/27 06:16:21;;;;;;;;;;;8.50;52.70;;;;;;5024163;28;86160;-53
2022/03/27 06:21:49;;;;;;;;;;;8.50;52.60;;;;;;5022576;28;87167;-53
2022/03/27 06:27:19;;;;;;;;;;;8.50;52.70;;;;;;5023827;28;86811;-53
2022/03/27 06:32:48;;;;;;;;;;;8.40;52.70;;;;;;5023660;28;86730;-53
2022/03/27 06:38:17;;;;;;;;;;;8.50;52.80;;;;;;5023237;28;86894;-52
2022/03/27 06:43:45;;;;;;;;;;;8.40;52.90;;;;;;5024181;28;86476;-57
2022/03/27 06:49:14;;;;;;;;;;;8.40;53.00;;;;;;5023406;28;86712;-53
2022/03/27 06:54:43;;;;;;;;;;;8.40;53.00;;;;;;5025927;28;87049;-53
2022/03/27 07:06:00;;;;;;;;;;;8.40;53.20;;;;;;5023369;28;86632;-56
2022/03/27 07:11:28;;;;;;;;;;;8.40;53.10;;;;;;5023728;28;86096;-52
2022/03/27 07:16:57;;;;;;;;;;;8.40;53.10;;;;;;5025510;28;86985;-54
2022/03/27 07:22:26;;;;;;;;;;;8.40;53.20;;;;;;5026173;28;87007;-53
2022/03/27 07:27:55;;;;;;;;;;;8.40;53.20;;;;;;5026541;28;86711;-52
2022/03/27 07:33:23;;;;;;;;;;;8.40;53.20;;;;;;5025839;28;86809;-52
2022/03/27 07:38:52;;;;;;;;;;;8.40;53.40;;;;;;5026487;28;86318;-53
2022/03/27 07:44:21;;;;;;;;;;;8.50;53.30;;;;;;5025890;28;86731;-53
2022/03/27 07:49:49;;;;;;;;;;;8.50;53.30;;;;;;5025204;28;87411;-53
2022/03/27 07:55:20;;;;;;;;;;;8.50;53.40;;;;;;5025330;28;86866;-52
2022/03/27 08:00:48;;;;;;;;;;;8.50;53.50;;;;;;5025630;28;87029;-53
2022/03/27 08:06:16;;;;;;;;;;;8.50;53.50;;;;;;5028916;28;86382;-53
2022/03/27 08:11:45;;;;;;;;;;;8.60;53.30;;;;;;5025868;28;86739;-55
2022/03/27 08:17:16;;;;;;;;;;;8.60;53.10;;;;;;5025858;28;87024;-53
2022/03/27 08:22:44;;;;;;;;;;;8.60;53.10;;;;;;5023751;28;87109;-53
2022/03/27 08:28:14;;;;;;;;;;;8.60;53.10;;;;;;5025716;28;86761;-52
2022/03/27 08:33:43;;;;;;;;;;;8.60;53.00;;;;;;5025896;28;86240;-54
2022/03/27 08:39:11;;;;;;;;;;;8.70;52.90;;;;;;5024237;28;86744;-55
2022/03/27 08:44:40;;;;;;;;;;;8.70;53.00;;;;;;5025081;28;87073;-53
2022/03/27 08:50:13;;;;;;;;;;;8.70;53.00;;;;;;5025294;28;86786;-55
2022/03/27 08:56:12;;;;;;;;;;;8.70;52.80;;;;;;5028137;28;86752;-52
2022/03/27 09:01:40;;;;;;;;;;;8.70;52.90;;;;;;5025428;28;85873;-52
2022/03/27 09:07:09;;;;;;;;;;;8.70;52.90;;;;;;5024563;28;87022;-52
2022/03/27 09:12:37;;;;;;;;;;;8.70;52.90;;;;;;5027070;28;87164;-56
2022/03/27 09:18:10;;;;;;;;;;;8.80;52.90;;;;;;5023575;28;87000;-55
2022/03/27 09:23:38;;;;;;;;;;;8.80;52.80;;;;;;5024705;28;86692;-55
2022/03/27 09:29:08;;;;;;;;;;;8.80;52.90;;;;;;5024871;28;86185;-54
2022/03/27 09:34:56;;;;;;;;;;;8.80;52.80;;;;;;5023912;28;86755;-54
2022/03/27 09:40:34;;;;;;;;;;;8.90;52.90;;;;;;5024610;28;86712;-53
2022/03/27 09:46:03;;;;;;;;;;;8.90;52.90;;;;;;5024502;28;86748;-53
2022/03/27 09:51:48;;;;;;;;;;;8.90;53.00;;;;;;5023884;28;87030;-53
2022/03/27 09:57:25;;;;;;;;;;;9.00;53.00;;;;;;5023471;28;86056;-54
2022/03/27 10:02:54;;;;;;;;;;;9.00;53.30;;;;;;5024187;28;86720;-56
2022/03/27 10:08:23;;;;;;;;;;;9.10;52.90;;;;;;5026610;28;86744;-53
2022/03/27 10:13:52;;;;;;;;;;;9.10;52.90;;;;;;5023631;28;87019;-56
2022/03/27 10:19:28;;;;;;;;;;;9.10;52.50;;;;;;5021431;28;86982;-56
2022/03/27 10:25:01;;;;;;;;;;;9.20;52.20;;;;;;5024331;28;85967;-56
2022/03/27 10:30:29;;;;;;;;;;;9.20;52.20;;;;;;5023425;28;87033;-57
2022/03/27 10:36:03;;;;;;;;;;;9.30;52.90;;;;;;5023366;28;86995;-55
2022/03/27 10:41:37;;;;;;;;;;;9.30;52.00;;;;;;5023642;28;86752;-57
2022/03/27 10:47:13;;;;;;;;;;;9.40;52.60;;;;;;5026631;28;86911;-57
2022/03/27 10:52:45;;;;;;;;;;;9.40;52.40;;;;;;5027181;28;86060;-55
2022/03/27 10:58:31;;;;;;;;;;;9.50;52.50;;;;;;5029512;28;86787;-57
2022/03/27 11:04:04;;;;;;;;;;;9.50;51.80;;;;;;5026861;28;87312;-55
2022/03/27 11:09:34;;;;;;;;;;;9.60;52.10;;;;;;5026803;28;86760;-56
2022/03/27 11:15:06;;;;;;;;;;;9.70;52.50;;;;;;5026324;28;86954;-55
2022/03/27 11:20:35;;;;;;;;;;;9.70;51.90;;;;;;5024970;28;86359;-57
2022/03/27 11:26:27;;;;;;;;;;;9.80;51.10;;;;;;5026590;28;86813;-53
2022/03/27 11:32:07;;;;;;;;;;;9.90;47.40;;;;;;5027552;28;86785;-52
2022/03/27 11:37:36;;;;;;;;;;;10.50;42.80;;;;;;5025991;28;86983;-54
2022/03/27 11:43:23;;;;;;;;;;;10.90;40.40;;;;;;5026273;28;86757;-51
2022/03/27 11:48:53;;;;;;;;;;;11.30;39.40;;;;;;5029541;28;86086;-53
2022/03/27 11:54:22;;;;;;;;;;;11.70;36.70;;;;;;5026623;28;86938;-58
2022/03/27 11:56:53;;;;;;;;;;;11.60;38.00;;;;;;5027704;28;88009;-59
2022/03/27 11:59:18;;;;;;;;;;;11.60;39.10;;;;;;5026522;28;87598;-53
2022/03/27 12:01:49;;;;;;;;;;;11.60;39.30;;;;;;5028523;28;87049;-54
2022/03/27 12:04:16;;;;;;;;;;;11.40;40.80;;;;;;5028309;28;87688;-56
2022/03/27 12:06:42;;;;;;;;;;;11.30;41.90;;;;;;5027835;28;87679;-56
2022/03/27 12:09:08;;;;;;;;;;;11.20;42.80;;;;;;5031478;28;87131;-57
2022/03/27 12:11:34;;;;;;;;;;;11.20;43.60;;;;;;5028056;28;87493;-53
2022/03/27 12:14:07;;;;;;;;;;;11.20;43.30;;;;;;5028616;28;86122;-55
2022/03/27 12:16:33;;;;;;;;;;;11.20;43.40;;;;;;5027029;28;87018;-56
2022/03/27 12:18:58;;;;;;;;;;;11.10;43.80;;;;;;5027669;28;88632;-54
2022/03/27 12:21:24;;;;;;;;;;;11.20;44.40;;;;;;5027009;28;87993;-56
2022/03/27 12:24:02;;;;;;;;;;;11.10;45.90;;;;;;5026912;28;86916;-54
2022/03/27 12:32:08;;;;;;;;;;;11.20;46.00;;;;;;5027428;28;86890;-55
2022/03/27 12:34:40;;;;;;;;;;;11.20;46.30;;;;;;5027920;28;87052;-53
2022/03/27 12:37:16;;;;;;;;;;;11.20;46.10;;;;;;5026682;28;88128;-53
2022/03/27 12:39:48;;;;;;;;;;;11.20;45.00;;;;;;5027903;28;86155;-54
2022/03/27 12:42:29;;;;;;;;;;;11.40;43.80;;;;;;5026797;28;87061;-56
2022/03/27 12:44:59;;;;;;;;;;;11.30;45.00;;;;;;5026688;28;87849;-52
2022/03/27 12:47:50;;;;;;;;;;;11.40;45.50;;;;;;5026612;28;88566;-52
2022/03/27 12:50:25;;;;;;;;;;;11.40;44.90;;;;;;5022666;28;86872;-55
2022/03/27 12:52:55;;;;;;;;;;;11.40;45.80;;;;;;5027432;28;87963;-53
2022/03/27 12:55:23;;;;;;;;;;;11.40;46.20;;;;;;5030105;28;88321;-55
2022/03/27 12:57:53;;;;;;;;;;;11.40;46.40;;;;;;5027545;28;87934;-52
2022/03/27 13:00:20;;;;;;;;;;;11.40;46.60;;;;;;5027091;28;88534;-52
2022/03/27 13:02:46;;;;;;;;;;;11.40;46.40;;;;;;5027564;28;86865;-52
2022/03/27 13:05:12;;;;;;;;;;;11.40;46.10;;;;;;5027874;28;87077;-52
2022/03/27 13:07:54;;;;;;;;;;;11.40;46.70;;;;;;5026975;28;88410;-54
2022/03/27 13:10:21;;;;;;;;;;;11.50;47.00;;;;;;5027318;28;86839;-54
2022/03/27 13:12:54;;;;;;;;;;;11.50;46.10;;;;;;5026566;28;87984;-52
2022/03/27 13:15:38;;;;;;;;;;;11.50;47.10;;;;;;5026331;28;87770;-52
2022/03/27 13:18:17;;;;;;;;;;;11.50;48.20;;;;;;5030386;28;87041;-53
2022/03/27 13:20:44;;;;;;;;;;;11.50;46.90;;;;;;5026480;28;88591;-54
2022/03/27 13:23:09;;;;;;;;;;;11.60;46.60;;;;;;5027100;28;86913;-52
2022/03/27 13:25:36;;;;;;;;;;;11.60;46.30;;;;;;5027159;28;88156;-53
2022/03/27 13:28:02;;;;;;;;;;;11.60;46.90;;;;;;5025640;28;88531;-53
2022/03/27 13:30:28;;;;;;;;;;;11.60;46.40;;;;;;5027479;28;86144;-52
2022/03/27 13:32:57;;;;;;;;;;;11.60;46.90;;;;;;5026192;28;86971;-50
2022/03/27 13:35:24;;;;;;;;;;;11.90;39.50;;;;;;5026549;28;87494;-53
2022/03/27 13:37:51;;;;;;;;;;;12.00;41.60;;;;;;5025146;28;87925;-52
2022/03/27 13:40:17;;;;;;;;;;;11.80;42.90;;;;;;5029338;28;88828;-55
2022/03/27 13:42:58;;;;;;;;;;;11.80;43.50;;;;;;5026814;28;86841;-52
2022/03/27 13:45:25;;;;;;;;;;;11.90;44.30;;;;;;5026306;28;86991;-52
2022/03/27 13:47:51;;;;;;;;;;;11.90;44.40;;;;;;5026341;28;88490;-55
2022/03/27 13:50:17;;;;;;;;;;;11.90;45.50;;;;;;5026984;28;87114;-53
2022/03/27 13:52:42;;;;;;;;;;;12.00;45.50;;;;;;5026780;28;87226;-54
2022/03/27 13:55:08;;;;;;;;;;;12.00;45.40;;;;;;5027100;28;86859;-52
2022/03/27 13:57:34;;;;;;;;;;;12.00;44.10;;;;;;5026549;28;86981;-53
2022/03/27 14:00:00;;;;;;;;;;;12.00;46.00;;;;;;5026925;28;86851;-52
2022/03/27 14:02:26;;;;;;;;;;;12.00;46.30;;;;;;5028438;28;88647;-53
2022/03/27 14:04:53;;;;;;;;;;;12.10;46.80;;;;;;5026517;28;88893;-54
2022/03/27 14:07:19;;;;;;;;;;;12.10;46.60;;;;;;5026067;28;88627;-52
2022/03/27 14:09:44;;;;;;;;;;;12.10;46.80;;;;;;5026489;28;86847;-53
2022/03/27 14:12:12;;;;;;;;;;;12.20;45.30;;;;;;5026848;28;86753;-52
2022/03/27 14:14:37;;;;;;;;;;;12.20;46.30;;;;;;5025821;28;88456;-53
2022/03/27 14:17:03;;;;;;;;;;;12.20;47.00;;;;;;5026245;28;86862;-52
2022/03/27 14:19:28;;;;;;;;;;;12.20;47.10;;;;;;5025968;28;88702;-53
2022/03/27 14:21:56;;;;;;;;;;;12.30;46.90;;;;;;5028184;28;87049;-52
2022/03/27 14:24:22;;;;;;;;;;;12.30;47.00;;;;;;5026139;28;86924;-53
2022/03/27 14:26:48;;;;;;;;;;;12.30;46.60;;;;;;5025137;28;89471;-53
2022/03/27 14:29:13;;;;;;;;;;;12.40;47.20;;;;;;5033696;28;86884;-55
2022/03/27 14:31:40;;;;;;;;;;;12.50;41.30;;;;;;5046331;28;87827;-54
2022/03/27 14:34:06;;;;;;;;;;;12.70;40.30;;;;;;5045903;28;87408;-53
2022/03/27 14:36:31;;;;;;;;;;;12.90;37.10;;;;;;5046416;28;86857;-56
2022/03/27 14:38:57;;;;;;;;;;;13.00;36.70;;;;;;5046255;28;87989;-54
2022/03/27 14:41:23;;;;;;;;;;;13.00;37.30;;;;;;5045993;28;87567;-57
2022/03/27 14:43:48;;;;;;;;;;;13.10;36.70;;;;;;5049635;28;86205;-54
2022/03/27 14:46:14;;;;;;;;;;;13.10;37.10;;;;;;5045936;28;87509;-56
2022/03/27 14:48:41;;;;;;;;;;;13.10;37.10;;;;;;5046074;28;87304;-48
2022/03/27 14:51:07;;;;;;;;;;;13.30;37.10;;;;;;5045396;28;88176;-53
2022/03/27 14:55:57;;;;;;;;;;;13.40;36.40;;;;;;5045357;28;88472;-57
2022/03/27 14:56:18;;;;;;;;;;;13.50;36.60;;;;;;5046374;28;86883;-62
2022/03/27 14:58:44;;;;;;;;;;;13.50;37.30;;;;;;5045924;28;87949;-62
2022/03/27 15:01:10;;;;;;;;;;;13.60;35.10;;;;;;5045619;28;87551;-53
2022/03/27 15:03:37;;;;;;;;;;;13.70;34.80;;;;;;5044881;28;86904;-57
2022/03/27 15:06:04;;;;;;;;;;;13.70;34.60;;;;;;5047047;28;87262;-56
2022/03/27 15:08:29;;;;;;;;;;;13.70;35.90;;;;;;5046259;28;86234;-54
2022/03/27 15:10:56;;;;;;;;;;;13.60;35.40;;;;;;5045809;28;86963;-57
2022/03/27 15:13:23;;;;;;;;;;;13.70;34.00;;;;;;5027047;28;87778;-57
2022/03/27 15:15:48;;;;;;;;;;;13.80;34.00;;;;;;5044116;28;88314;-55
2022/03/27 15:18:14;;;;;;;;;;;13.70;36.10;;;;;;5044748;28;87702;-59
2022/03/27 15:20:41;;;;;;;;;;;13.80;35.40;;;;;;5044026;28;87482;-59
2022/03/27 15:23:07;;;;;;;;;;;13.70;35.90;;;;;;5044670;28;87241;-60
2022/03/27 15:25:33;;;;;;;;;;;13.80;34.60;;;;;;5044726;28;87844;-51
2022/03/27 15:27:59;;;;;;;;;;;13.80;32.70;;;;;;5047132;28;88874;-52
2022/03/27 15:30:26;;;;;;;;;;;13.90;35.10;;;;;;5045007;28;87206;-56
2022/03/27 15:32:52;;;;;;;;;;;14.00;34.30;;;;;;5045568;27;87388;-53
2022/03/27 15:35:18;;;;;;;;;;;14.10;32.10;;;;;;5048546;28;87118;-53
2022/03/27 15:37:47;;;;;;;;;;;14.00;32.90;;;;;;5048963;28;87735;-53
2022/03/27 15:40:17;;;;;;;;;;;14.00;35.50;;;;;;5047938;28;88580;-58
2022/03/27 15:45:45;;;;;;;;;;;13.80;37.30;;;;;;5046506;28;86750;-53
2022/03/27 15:51:14;;;;;;;;;;;13.80;39.50;;;;;;5049349;28;86717;-54
2022/03/27 15:56:42;;;;;;;;;;;13.80;40.30;;;;;;5046229;28;86756;-53
2022/03/27 16:02:11;;;;;;;;;;;13.90;41.50;;;;;;5045881;28;86720;-55
2022/03/27 16:07:40;;;;;;;;;;;14.00;41.40;;;;;;5045457;28;87804;-54
2022/03/27 16:13:08;;;;;;;;;;;14.00;41.50;;;;;;5046077;28;86798;-53
2022/03/27 16:18:40;;;;;;;;;;;14.00;42.00;;;;;;5045998;28;86769;-55
2022/03/27 16:24:18;;;;;;;;;;;14.00;41.90;;;;;;5045521;28;87122;-53
2022/03/27 16:29:47;;;;;;;;;;;14.10;42.20;;;;;;5045881;28;86812;-55
2022/03/27 16:35:16;;;;;;;;;;;14.00;42.10;;;;;;5044973;28;87682;-55
2022/03/27 16:40:45;;;;;;;;;;;13.90;42.80;;;;;;5045615;28;86642;-55
2022/03/27 16:46:13;;;;;;;;;;;14.00;42.80;;;;;;5044948;28;86872;-57
2022/03/27 16:51:42;;;;;;;;;;;14.00;43.10;;;;;;5045435;28;86752;-56
2022/03/27 16:57:10;;;;;;;;;;;13.90;43.80;;;;;;5045527;28;87122;-55
2022/03/27 17:02:39;;;;;;;;;;;13.80;44.00;;;;;;5047188;28;87850;-56
2022/03/27 17:08:08;;;;;;;;;;;13.80;44.10;;;;;;5044868;28;86699;-53
2022/03/27 17:13:36;;;;;;;;;;;13.80;44.30;;;;;;5045030;28;86743;-55
2022/03/27 17:19:05;;;;;;;;;;;13.80;44.40;;;;;;5045018;28;86727;-55
2022/03/27 17:24:33;;;;;;;;;;;13.70;44.60;;;;;;5044490;28;87032;-56
2022/03/27 17:30:03;;;;;;;;;;;13.70;44.90;;;;;;5043858;28;87996;-57
2022/03/27 17:35:32;;;;;;;;;;;13.70;45.30;;;;;;5044972;28;86849;-57
2022/03/27 17:41:00;;;;;;;;;;;13.70;45.60;;;;;;5044749;28;86727;-57
2022/03/27 17:46:28;;;;;;;;;;;13.70;45.80;;;;;;5044064;28;87049;-54
2022/03/27 17:51:57;;;;;;;;;;;13.70;46.10;;;;;;5046982;28;86742;-54
2022/03/27 17:57:26;;;;;;;;;;;13.70;46.10;;;;;;5042873;27;87920;-54
2022/03/27 18:02:54;;;;;;;;;;;13.70;46.40;;;;;;5044248;28;86773;-54
2022/03/27 18:08:23;;;;;;;;;;;13.70;46.60;;;;;;5043866;28;87122;-52
2022/03/27 18:13:51;;;;;;;;;;;13.70;46.90;;;;;;5044081;28;86775;-57
2022/03/27 18:19:20;;;;;;;;;;;13.70;47.00;;;;;;5044130;28;86719;-54
2022/03/27 18:24:48;;;;;;;;;;;13.70;47.10;;;;;;5043375;28;87798;-56
2022/03/27 18:30:17;;;;;;;;;;;13.70;47.20;;;;;;5043514;28;86954;-56
2022/03/27 18:35:46;;;;;;;;;;;13.70;47.40;;;;;;5044070;28;86863;-56
2022/03/27 18:41:14;;;;;;;;;;;13.70;47.50;;;;;;5046654;28;86748;-54
2022/03/27 18:46:43;;;;;;;;;;;13.70;47.60;;;;;;5043768;28;86755;-55
2022/03/27 18:52:12;;;;;;;;;;;13.70;47.80;;;;;;5042629;28;87722;-55
2022/03/27 18:57:41;;;;;;;;;;;13.70;47.80;;;;;;5043722;28;86738;-54
2022/03/27 19:03:15;;;;;;;;;;;13.70;47.90;;;;;;5046525;28;86815;-55
2022/03/27 19:08:51;;;;;;;;;;;13.60;48.00;;;;;;5046353;27;86613;-57
2022/03/27 19:14:20;;;;;;;;;;;13.60;48.10;;;;;;5046620;28;87091;-53
2022/03/27 19:19:55;;;;;;;;;;;13.60;48.10;;;;;;5046197;27;87726;-53
2022/03/27 19:25:23;;;;;;;;;;;13.60;48.10;;;;;;5046975;28;86719;-57
2022/03/27 19:30:52;;;;;;;;;;;13.60;48.30;;;;;;5046800;28;86634;-57
2022/03/27 19:36:22;;;;;;;;;;;13.60;48.40;;;;;;5046297;28;87075;-56
2022/03/27 19:41:51;;;;;;;;;;;13.60;48.40;;;;;;5046660;28;86737;-56
2022/03/27 19:47:19;;;;;;;;;;;13.60;48.40;;;;;;5046073;28;87624;-56
2022/03/27 19:52:48;;;;;;;;;;;13.60;48.50;;;;;;5048889;28;87039;-53
2022/03/27 19:58:17;;;;;;;;;;;13.50;48.50;;;;;;5045881;28;86985;-53
2022/03/27 20:03:45;;;;;;;;;;;13.50;48.60;;;;;;5046241;28;86770;-52
2022/03/27 20:09:14;;;;;;;;;;;13.50;48.70;;;;;;5046107;28;86714;-53
2022/03/27 20:14:43;;;;;;;;;;;13.50;48.80;;;;;;5044836;28;87930;-53
2022/03/27 20:20:13;;;;;;;;;;;13.50;48.90;;;;;;5044910;28;87017;-56
2022/03/27 20:25:42;;;;;;;;;;;13.50;48.90;;;;;;5045883;28;86714;-56
2022/03/27 20:31:11;;;;;;;;;;;13.40;48.90;;;;;;5045962;28;86812;-57
2022/03/27 20:36:41;;;;;;;;;;;13.40;49.00;;;;;;5045344;28;86956;-57
2022/03/27 20:42:09;;;;;;;;;;;13.40;48.90;;;;;;5047610;28;87773;-57
2022/03/27 20:47:38;;;;;;;;;;;13.40;49.00;;;;;;5045594;28;86669;-53
2022/03/27 20:53:07;;;;;;;;;;;13.40;49.10;;;;;;5045549;28;86784;-56
2022/03/27 20:58:36;;;;;;;;;;;13.40;49.10;;;;;;5044992;28;87004;-56
2022/03/27 21:04:05;;;;;;;;;;;13.30;49.10;;;;;;5047785;28;86835;-56
2022/03/27 21:09:33;;;;;;;;;;;13.30;49.10;;;;;;5044657;28;87789;-55
2022/03/27 21:15:03;;;;;;;;;;;13.30;49.20;;;;;;5045012;28;86788;-57
2022/03/27 21:20:31;;;;;;;;;;;13.20;49.10;;;;;;5045164;28;86872;-57
2022/03/27 21:26:00;;;;;;;;;;;13.20;49.10;;;;;;5045044;28;86757;-52
2022/03/27 21:31:28;;;;;;;;;;;13.20;49.20;;;;;;5043702;28;86743;-57
2022/03/27 21:36:57;;;;;;;;;;;13.20;49.20;;;;;;5044073;28;87803;-57
2022/03/27 21:42:25;;;;;;;;;;;13.20;49.20;;;;;;5044255;28;86756;-52
2022/03/27 21:47:55;;;;;;;;;;;13.10;49.30;;;;;;5044666;28;86816;-53
2022/03/27 21:53:23;;;;;;;;;;;13.10;49.40;;;;;;5047403;28;86740;-56
2022/03/27 21:58:51;;;;;;;;;;;13.10;49.40;;;;;;5044466;28;86752;-57
2022/03/27 22:04:20;;;;;;;;;;;13.10;50.10;;;;;;5043263;28;87976;-54
2022/03/27 22:09:48;;;;;;;;;;;13.00;49.40;;;;;;5044277;28;86745;-56
2022/03/27 22:15:17;;;;;;;;;;;13.00;49.50;;;;;;5044063;28;86732;-55
2022/03/27 22:20:45;;;;;;;;;;;13.00;49.60;;;;;;5044442;28;86774;-53
2022/03/27 22:26:14;;;;;;;;;;;13.00;49.60;;;;;;5043628;28;86773;-56
2022/03/27 22:31:42;;;;;;;;;;;12.90;49.60;;;;;;5043425;28;87692;-54
2022/03/27 22:37:11;;;;;;;;;;;12.90;49.60;;;;;;5044035;28;86761;-55
2022/03/27 22:42:40;;;;;;;;;;;12.80;49.40;;;;;;5047494;28;86557;-56
2022/03/27 22:48:09;;;;;;;;;;;12.80;49.50;;;;;;5047034;28;87019;-55
2022/03/27 22:53:38;;;;;;;;;;;12.80;49.70;;;;;;5047339;28;86855;-54
2022/03/27 22:59:06;;;;;;;;;;;12.70;49.70;;;;;;5046689;28;87703;-56
2022/03/27 23:04:35;;;;;;;;;;;12.70;49.80;;;;;;5046774;28;87050;-54
2022/03/27 23:10:04;;;;;;;;;;;12.70;49.80;;;;;;5046621;28;86770;-54
2022/03/27 23:15:33;;;;;;;;;;;12.60;49.80;;;;;;5046977;28;86736;-57
2022/03/27 23:21:03;;;;;;;;;;;12.60;49.90;;;;;;5047035;28;87027;-55
2022/03/27 23:26:32;;;;;;;;;;;12.60;50.00;;;;;;5045799;28;88107;-55
2022/03/27 23:32:10;;;;;;;;;;;12.50;50.00;;;;;;5046336;28;86772;-56
2022/03/27 23:37:39;;;;;;;;;;;12.50;50.00;;;;;;5046616;28;86653;-57
2022/03/27 23:43:08;;;;;;;;;;;12.50;50.10;;;;;;5046656;28;86740;-56
2022/03/27 23:48:36;;;;;;;;;;;12.40;50.60;;;;;;5046054;28;86784;-54
2022/03/27 23:54:05;;;;;;;;;;;12.40;50.10;;;;;;5048432;27;87639;-52
2022/03/27 23:59:34;;;;;;;;;;;12.30;50.00;;;;;;5046320;28;86862;-57
